sensor_id;sensor_type;location;lat;lon;timestamp;pressure;altitude;pressure_sealevel;temperature;humidity
62632;BME280;48703;51.248;-0.546;2023-09-19T00:02:53;100221;;;13.17;86.23
62632;BME280;48703;51.248;-0.546;2023-09-19T00:05:55;100212;;;13.16;86.47
62632;BME280;48703;51.248;-0.546;2023-09-19T00:08:57;100214;;;13.17;86.33
62632;BME280;48703;51.248;-0.546;2023-09-19T00:11:59;100213;;;13.15;86.31
62632;BME280;48703;51.248;-0.546;2023-09-19T00:15:01;100215;;;13.15;86.35
62632;BME280;48703;51.248;-0.546;2023-09-19T00:18:03;100216;;;13.14;86.49
62632;BME280;48703;51.248;-0.546;2023-09-19T00:21:05;100212;;;13.13;86.38
62632;BME280;48703;51.248;-0.546;2023-09-19T00:24:07;100211;;;13.12;86.65
62632;BME280;48703;51.248;-0.546;2023-09-19T00:27:09;100212;;;13.11;86.56
62632;BME280;48703;51.248;-0.546;2023-09-19T00:30:12;100217;;;13.11;86.89
62632;BME280;48703;51.248;-0.546;2023-09-19T00:33:14;100210;;;13.10;86.88
62632;BME280;48703;51.248;-0.546;2023-09-19T00:36:16;100209;;;13.10;86.73
62632;BME280;48703;51.248;-0.546;2023-09-19T00:39:18;100212;;;13.09;86.92
62632;BME280;48703;51.248;-0.546;2023-09-19T00:42:20;100213;;;13.08;86.76
62632;BME280;48703;51.248;-0.546;2023-09-19T00:45:22;100211;;;13.07;86.90
62632;BME280;48703;51.248;-0.546;2023-09-19T00:48:24;100212;;;13.06;86.87
62632;BME280;48703;51.248;-0.546;2023-09-19T00:51:26;100219;;;13.05;87.12
62632;BME280;48703;51.248;-0.546;2023-09-19T00:54:28;100222;;;13.03;87.15
62632;BME280;48703;51.248;-0.546;2023-09-19T00:57:30;100223;;;13.02;87.03
62632;BME280;48703;51.248;-0.546;2023-09-19T01:00:32;100222;;;13.02;87.10
62632;BME280;48703;51.248;-0.546;2023-09-19T01:03:34;100225;;;13.02;87.02
62632;BME280;48703;51.248;-0.546;2023-09-19T01:06:36;100228;;;13.02;87.00
62632;BME280;48703;51.248;-0.546;2023-09-19T01:09:38;100230;;;13.02;87.02
62632;BME280;48703;51.248;-0.546;2023-09-19T01:12:45;100238;;;13.01;86.93
62632;BME280;48703;51.248;-0.546;2023-09-19T01:15:47;100238;;;13.00;86.98
62632;BME280;48703;51.248;-0.546;2023-09-19T01:18:47;100236;;;13.00;86.93
62632;BME280;48703;51.248;-0.546;2023-09-19T01:21:48;100235;;;13.00;86.93
62632;BME280;48703;51.248;-0.546;2023-09-19T01:26:38;100232;;;13.00;86.90
62632;BME280;48703;51.248;-0.546;2023-09-19T01:28:15;100230;;;13.00;86.90
62632;BME280;48703;51.248;-0.546;2023-09-19T01:30:56;100229;;;12.99;86.94
62632;BME280;48703;51.248;-0.546;2023-09-19T01:34:01;100228;;;12.99;87.25
62632;BME280;48703;51.248;-0.546;2023-09-19T01:36:57;100230;;;12.98;87.45
62632;BME280;48703;51.248;-0.546;2023-09-19T01:40:00;100223;;;12.98;87.27
62632;BME280;48703;51.248;-0.546;2023-09-19T01:43:03;100217;;;12.98;87.30
62632;BME280;48703;51.248;-0.546;2023-09-19T01:46:04;100220;;;12.98;87.43
62632;BME280;48703;51.248;-0.546;2023-09-19T01:49:15;100223;;;12.97;87.53
62632;BME280;48703;51.248;-0.546;2023-09-19T01:52:09;100224;;;12.96;87.71
62632;BME280;48703;51.248;-0.546;2023-09-19T01:55:09;100224;;;12.95;87.70
62632;BME280;48703;51.248;-0.546;2023-09-19T01:58:14;100221;;;12.95;88.09
62632;BME280;48703;51.248;-0.546;2023-09-19T02:01:15;100215;;;12.95;88.25
62632;BME280;48703;51.248;-0.546;2023-09-19T02:04:15;100212;;;12.94;88.37
62632;BME280;48703;51.248;-0.546;2023-09-19T02:07:18;100211;;;12.94;88.19
62632;BME280;48703;51.248;-0.546;2023-09-19T02:10:20;100212;;;12.93;88.18
62632;BME280;48703;51.248;-0.546;2023-09-19T02:13:22;100219;;;12.93;88.34
62632;BME280;48703;51.248;-0.546;2023-09-19T02:16:24;100221;;;12.93;88.26
62632;BME280;48703;51.248;-0.546;2023-09-19T02:19:26;100225;;;12.93;88.33
62632;BME280;48703;51.248;-0.546;2023-09-19T02:22:28;100233;;;12.93;88.44
62632;BME280;48703;51.248;-0.546;2023-09-19T02:25:30;100236;;;12.94;88.36
62632;BME280;48703;51.248;-0.546;2023-09-19T02:28:32;100232;;;12.94;88.44
62632;BME280;48703;51.248;-0.546;2023-09-19T02:31:34;100234;;;12.94;88.32
62632;BME280;48703;51.248;-0.546;2023-09-19T02:34:36;100233;;;12.95;88.35
62632;BME280;48703;51.248;-0.546;2023-09-19T02:37:38;100240;;;12.94;88.49
62632;BME280;48703;51.248;-0.546;2023-09-19T02:40:40;100238;;;12.94;88.37
62632;BME280;48703;51.248;-0.546;2023-09-19T02:43:42;100230;;;12.93;88.31
62632;BME280;48703;51.248;-0.546;2023-09-19T02:46:44;100225;;;12.93;88.42
62632;BME280;48703;51.248;-0.546;2023-09-19T02:49:47;100226;;;12.92;88.67
62632;BME280;48703;51.248;-0.546;2023-09-19T02:52:49;100228;;;12.91;88.90
62632;BME280;48703;51.248;-0.546;2023-09-19T02:55:51;100226;;;12.91;89.04
62632;BME280;48703;51.248;-0.546;2023-09-19T02:58:53;100226;;;12.91;88.96
62632;BME280;48703;51.248;-0.546;2023-09-19T03:01:55;100217;;;12.91;89.18
62632;BME280;48703;51.248;-0.546;2023-09-19T03:04:57;100212;;;12.91;89.49
62632;BME280;48703;51.248;-0.546;2023-09-19T03:07:59;100210;;;12.92;89.66
62632;BME280;48703;51.248;-0.546;2023-09-19T03:11:02;100210;;;12.93;89.84
62632;BME280;48703;51.248;-0.546;2023-09-19T03:14:03;100215;;;12.95;89.79
62632;BME280;48703;51.248;-0.546;2023-09-19T03:17:05;100214;;;12.96;90.16
62632;BME280;48703;51.248;-0.546;2023-09-19T03:20:08;100210;;;12.97;90.07
62632;BME280;48703;51.248;-0.546;2023-09-19T03:23:09;100209;;;12.98;90.38
62632;BME280;48703;51.248;-0.546;2023-09-19T03:26:12;100205;;;12.99;90.51
62632;BME280;48703;51.248;-0.546;2023-09-19T03:29:14;100201;;;12.99;90.64
62632;BME280;48703;51.248;-0.546;2023-09-19T03:32:16;100195;;;13.00;90.75
62632;BME280;48703;51.248;-0.546;2023-09-19T03:35:18;100192;;;13.01;91.02
62632;BME280;48703;51.248;-0.546;2023-09-19T03:38:20;100192;;;13.01;91.80
62632;BME280;48703;51.248;-0.546;2023-09-19T03:41:22;100183;;;13.01;91.59
62632;BME280;48703;51.248;-0.546;2023-09-19T03:44:24;100177;;;13.02;91.93
62632;BME280;48703;51.248;-0.546;2023-09-19T03:47:26;100171;;;13.03;91.92
62632;BME280;48703;51.248;-0.546;2023-09-19T03:50:28;100160;;;13.03;92.13
62632;BME280;48703;51.248;-0.546;2023-09-19T03:53:30;100156;;;13.04;92.42
62632;BME280;48703;51.248;-0.546;2023-09-19T03:56:32;100155;;;13.05;92.62
62632;BME280;48703;51.248;-0.546;2023-09-19T03:59:34;100155;;;13.06;93.01
62632;BME280;48703;51.248;-0.546;2023-09-19T04:02:37;100147;;;13.08;92.98
62632;BME280;48703;51.248;-0.546;2023-09-19T04:05:38;100142;;;13.09;93.37
62632;BME280;48703;51.248;-0.546;2023-09-19T04:08:40;100140;;;13.11;93.64
62632;BME280;48703;51.248;-0.546;2023-09-19T04:11:42;100138;;;13.13;93.84
62632;BME280;48703;51.248;-0.546;2023-09-19T04:14:44;100137;;;13.16;94.14
62632;BME280;48703;51.248;-0.546;2023-09-19T04:17:46;100134;;;13.19;94.21
62632;BME280;48703;51.248;-0.546;2023-09-19T04:20:49;100123;;;13.22;94.27
62632;BME280;48703;51.248;-0.546;2023-09-19T04:23:51;100117;;;13.24;94.32
62632;BME280;48703;51.248;-0.546;2023-09-19T04:26:53;100112;;;13.27;94.37
62632;BME280;48703;51.248;-0.546;2023-09-19T04:29:55;100111;;;13.31;94.75
62632;BME280;48703;51.248;-0.546;2023-09-19T04:32:57;100103;;;13.34;94.89
62632;BME280;48703;51.248;-0.546;2023-09-19T04:35:59;100099;;;13.37;95.08
62632;BME280;48703;51.248;-0.546;2023-09-19T04:39:01;100093;;;13.40;95.03
62632;BME280;48703;51.248;-0.546;2023-09-19T04:42:03;100094;;;13.42;94.94
62632;BME280;48703;51.248;-0.546;2023-09-19T04:45:05;100094;;;13.46;95.37
62632;BME280;48703;51.248;-0.546;2023-09-19T04:48:07;100093;;;13.51;95.12
62632;BME280;48703;51.248;-0.546;2023-09-19T04:51:09;100088;;;13.53;95.14
62632;BME280;48703;51.248;-0.546;2023-09-19T04:54:11;100088;;;13.56;95.11
62632;BME280;48703;51.248;-0.546;2023-09-19T04:57:13;100085;;;13.59;95.07
62632;BME280;48703;51.248;-0.546;2023-09-19T05:00:16;100084;;;13.62;95.12
62632;BME280;48703;51.248;-0.546;2023-09-19T05:03:17;100086;;;13.65;95.38
62632;BME280;48703;51.248;-0.546;2023-09-19T05:06:19;100092;;;13.68;95.63
62632;BME280;48703;51.248;-0.546;2023-09-19T05:09:21;100091;;;13.71;95.58
62632;BME280;48703;51.248;-0.546;2023-09-19T05:12:23;100092;;;13.75;95.84
62632;BME280;48703;51.248;-0.546;2023-09-19T05:15:26;100093;;;13.77;95.70
62632;BME280;48703;51.248;-0.546;2023-09-19T05:18:28;100100;;;13.79;95.67
62632;BME280;48703;51.248;-0.546;2023-09-19T05:21:30;100104;;;13.80;95.71
62632;BME280;48703;51.248;-0.546;2023-09-19T05:24:32;100102;;;13.82;95.87
62632;BME280;48703;51.248;-0.546;2023-09-19T05:27:34;100107;;;13.83;95.93
62632;BME280;48703;51.248;-0.546;2023-09-19T05:30:36;100103;;;13.86;96.02
62632;BME280;48703;51.248;-0.546;2023-09-19T05:33:38;100104;;;13.87;96.23
62632;BME280;48703;51.248;-0.546;2023-09-19T05:36:40;100101;;;13.89;96.46
62632;BME280;48703;51.248;-0.546;2023-09-19T05:39:42;100099;;;13.91;96.65
62632;BME280;48703;51.248;-0.546;2023-09-19T05:42:44;100100;;;13.93;96.95
62632;BME280;48703;51.248;-0.546;2023-09-19T05:45:46;100095;;;13.95;96.80
62632;BME280;48703;51.248;-0.546;2023-09-19T05:48:48;100093;;;13.98;97.28
62632;BME280;48703;51.248;-0.546;2023-09-19T05:51:50;100086;;;14.01;97.57
62632;BME280;48703;51.248;-0.546;2023-09-19T05:54:52;100079;;;14.05;98.56
62632;BME280;48703;51.248;-0.546;2023-09-19T05:57:54;100072;;;14.07;99.25
62632;BME280;48703;51.248;-0.546;2023-09-19T06:00:56;100066;;;14.11;99.95
62632;BME280;48703;51.248;-0.546;2023-09-19T06:03:58;100070;;;14.15;100.00
62632;BME280;48703;51.248;-0.546;2023-09-19T06:07:01;100081;;;14.18;100.00
62632;BME280;48703;51.248;-0.546;2023-09-19T06:10:03;100082;;;14.21;100.00
62632;BME280;48703;51.248;-0.546;2023-09-19T06:13:05;100082;;;14.24;100.00
62632;BME280;48703;51.248;-0.546;2023-09-19T06:16:07;100081;;;14.26;100.00
62632;BME280;48703;51.248;-0.546;2023-09-19T06:19:09;100074;;;14.28;100.00
62632;BME280;48703;51.248;-0.546;2023-09-19T06:22:11;100069;;;14.30;100.00
62632;BME280;48703;51.248;-0.546;2023-09-19T06:25:13;100061;;;14.33;100.00
62632;BME280;48703;51.248;-0.546;2023-09-19T06:28:15;100061;;;14.35;100.00
62632;BME280;48703;51.248;-0.546;2023-09-19T06:31:17;100063;;;14.37;100.00
62632;BME280;48703;51.248;-0.546;2023-09-19T06:34:19;100055;;;14.41;100.00
62632;BME280;48703;51.248;-0.546;2023-09-19T06:37:21;100056;;;14.44;100.00
62632;BME280;48703;51.248;-0.546;2023-09-19T06:40:23;100054;;;14.48;100.00
62632;BME280;48703;51.248;-0.546;2023-09-19T06:43:25;100054;;;14.54;100.00
62632;BME280;48703;51.248;-0.546;2023-09-19T06:46:27;100050;;;14.58;100.00
62632;BME280;48703;51.248;-0.546;2023-09-19T06:49:30;100049;;;14.61;100.00
62632;BME280;48703;51.248;-0.546;2023-09-19T06:52:32;100046;;;14.65;100.00
62632;BME280;48703;51.248;-0.546;2023-09-19T06:55:34;100041;;;14.68;100.00
62632;BME280;48703;51.248;-0.546;2023-09-19T06:58:36;100039;;;14.72;100.00
62632;BME280;48703;51.248;-0.546;2023-09-19T07:01:38;100030;;;14.77;100.00
62632;BME280;48703;51.248;-0.546;2023-09-19T07:04:40;100021;;;14.81;100.00
62632;BME280;48703;51.248;-0.546;2023-09-19T07:07:42;100017;;;14.86;100.00
62632;BME280;48703;51.248;-0.546;2023-09-19T07:10:44;100015;;;14.91;100.00
62632;BME280;48703;51.248;-0.546;2023-09-19T07:13:46;100011;;;14.93;100.00
62632;BME280;48703;51.248;-0.546;2023-09-19T07:16:48;100011;;;14.95;100.00
62632;BME280;48703;51.248;-0.546;2023-09-19T07:19:50;100010;;;14.98;100.00
62632;BME280;48703;51.248;-0.546;2023-09-19T07:22:52;100004;;;15.00;100.00
62632;BME280;48703;51.248;-0.546;2023-09-19T07:25:56;99995;;;15.03;100.00
62632;BME280;48703;51.248;-0.546;2023-09-19T07:28:56;99999;;;15.06;100.00
62632;BME280;48703;51.248;-0.546;2023-09-19T07:31:59;100000;;;15.08;100.00
62632;BME280;48703;51.248;-0.546;2023-09-19T07:35:01;99999;;;15.10;100.00
62632;BME280;48703;51.248;-0.546;2023-09-19T07:38:03;100001;;;15.12;100.00
62632;BME280;48703;51.248;-0.546;2023-09-19T07:41:05;99997;;;15.14;100.00
62632;BME280;48703;51.248;-0.546;2023-09-19T07:44:07;99995;;;15.15;100.00
62632;BME280;48703;51.248;-0.546;2023-09-19T07:47:09;99997;;;15.17;100.00
62632;BME280;48703;51.248;-0.546;2023-09-19T07:50:11;99997;;;15.17;100.00
62632;BME280;48703;51.248;-0.546;2023-09-19T07:53:13;99999;;;15.19;100.00
62632;BME280;48703;51.248;-0.546;2023-09-19T07:56:15;99993;;;15.22;100.00
62632;BME280;48703;51.248;-0.546;2023-09-19T07:59:17;99996;;;15.26;100.00
62632;BME280;48703;51.248;-0.546;2023-09-19T08:02:19;99998;;;15.30;100.00
62632;BME280;48703;51.248;-0.546;2023-09-19T08:05:21;99987;;;15.34;100.00
62632;BME280;48703;51.248;-0.546;2023-09-19T08:08:23;99986;;;15.37;99.88
62632;BME280;48703;51.248;-0.546;2023-09-19T08:11:25;99983;;;15.41;99.54
62632;BME280;48703;51.248;-0.546;2023-09-19T08:14:27;99983;;;15.43;99.86
62632;BME280;48703;51.248;-0.546;2023-09-19T08:17:33;99984;;;15.47;100.00
62632;BME280;48703;51.248;-0.546;2023-09-19T08:20:32;99987;;;15.50;99.96
62632;BME280;48703;51.248;-0.546;2023-09-19T08:23:34;99993;;;15.53;99.60
62632;BME280;48703;51.248;-0.546;2023-09-19T08:26:36;99998;;;15.56;99.45
62632;BME280;48703;51.248;-0.546;2023-09-19T08:29:38;99992;;;15.60;98.63
62632;BME280;48703;51.248;-0.546;2023-09-19T08:32:40;99990;;;15.63;98.00
62632;BME280;48703;51.248;-0.546;2023-09-19T08:35:42;99981;;;15.68;97.59
62632;BME280;48703;51.248;-0.546;2023-09-19T08:38:44;99971;;;15.74;97.19
62632;BME280;48703;51.248;-0.546;2023-09-19T08:41:46;99971;;;15.82;96.74
62632;BME280;48703;51.248;-0.546;2023-09-19T08:44:48;99966;;;15.91;96.27
62632;BME280;48703;51.248;-0.546;2023-09-19T08:47:52;99963;;;15.98;95.59
62632;BME280;48703;51.248;-0.546;2023-09-19T08:50:53;99968;;;16.02;95.16
62632;BME280;48703;51.248;-0.546;2023-09-19T08:53:57;99977;;;16.05;95.12
62632;BME280;48703;51.248;-0.546;2023-09-19T08:56:56;99980;;;16.06;94.43
62632;BME280;48703;51.248;-0.546;2023-09-19T08:59:58;99980;;;16.09;94.44
62632;BME280;48703;51.248;-0.546;2023-09-19T09:03:01;99980;;;16.11;94.46
62632;BME280;48703;51.248;-0.546;2023-09-19T09:06:03;99988;;;16.12;94.55
62632;BME280;48703;51.248;-0.546;2023-09-19T09:09:05;99987;;;16.12;94.52
62632;BME280;48703;51.248;-0.546;2023-09-19T09:12:07;99994;;;16.12;94.47
62632;BME280;48703;51.248;-0.546;2023-09-19T09:15:09;99991;;;16.14;94.21
62632;BME280;48703;51.248;-0.546;2023-09-19T09:18:11;99992;;;16.17;93.35
62632;BME280;48703;51.248;-0.546;2023-09-19T09:21:13;99995;;;16.22;92.89
62632;BME280;48703;51.248;-0.546;2023-09-19T09:24:30;99999;;;16.25;92.47
62632;BME280;48703;51.248;-0.546;2023-09-19T09:27:17;100005;;;16.27;92.14
62632;BME280;48703;51.248;-0.546;2023-09-19T09:30:32;100007;;;16.28;91.89
62632;BME280;48703;51.248;-0.546;2023-09-19T09:33:21;100009;;;16.30;91.23
62632;BME280;48703;51.248;-0.546;2023-09-19T09:36:39;100011;;;16.33;90.57
62632;BME280;48703;51.248;-0.546;2023-09-19T09:39:33;100014;;;16.35;90.46
62632;BME280;48703;51.248;-0.546;2023-09-19T09:42:29;100002;;;16.38;89.92
62632;BME280;48703;51.248;-0.546;2023-09-19T09:45:30;100004;;;16.40;89.44
62632;BME280;48703;51.248;-0.546;2023-09-19T09:48:32;99999;;;16.42;89.35
62632;BME280;48703;51.248;-0.546;2023-09-19T09:51:34;100003;;;16.43;88.86
62632;BME280;48703;51.248;-0.546;2023-09-19T09:54:36;100010;;;16.44;88.72
62632;BME280;48703;51.248;-0.546;2023-09-19T09:57:38;100007;;;16.45;89.00
62632;BME280;48703;51.248;-0.546;2023-09-19T10:00:42;100005;;;16.48;89.20
62632;BME280;48703;51.248;-0.546;2023-09-19T10:03:42;100010;;;16.51;89.26
62632;BME280;48703;51.248;-0.546;2023-09-19T10:06:44;100002;;;16.54;89.28
62632;BME280;48703;51.248;-0.546;2023-09-19T10:09:46;100006;;;16.59;89.54
62632;BME280;48703;51.248;-0.546;2023-09-19T10:12:48;100004;;;16.62;89.65
62632;BME280;48703;51.248;-0.546;2023-09-19T10:15:51;100003;;;16.62;89.71
62632;BME280;48703;51.248;-0.546;2023-09-19T10:18:52;100001;;;16.63;90.13
62632;BME280;48703;51.248;-0.546;2023-09-19T10:21:54;99998;;;16.66;90.05
62632;BME280;48703;51.248;-0.546;2023-09-19T10:24:56;99992;;;16.74;90.15
62632;BME280;48703;51.248;-0.546;2023-09-19T10:28:00;99991;;;16.87;90.30
62632;BME280;48703;51.248;-0.546;2023-09-19T10:31:00;99990;;;16.98;89.44
62632;BME280;48703;51.248;-0.546;2023-09-19T10:34:03;99985;;;17.05;89.15
62632;BME280;48703;51.248;-0.546;2023-09-19T10:37:04;99988;;;17.09;89.01
62632;BME280;48703;51.248;-0.546;2023-09-19T10:40:07;99981;;;17.14;89.30
62632;BME280;48703;51.248;-0.546;2023-09-19T10:43:11;99965;;;17.19;88.81
62632;BME280;48703;51.248;-0.546;2023-09-19T10:46:11;99975;;;17.25;88.98
62632;BME280;48703;51.248;-0.546;2023-09-19T10:49:13;99980;;;17.28;89.05
62632;BME280;48703;51.248;-0.546;2023-09-19T10:52:15;99985;;;17.29;89.10
62632;BME280;48703;51.248;-0.546;2023-09-19T10:55:17;99983;;;17.29;89.11
62632;BME280;48703;51.248;-0.546;2023-09-19T10:58:27;99978;;;17.28;89.41
62632;BME280;48703;51.248;-0.546;2023-09-19T11:01:21;99981;;;17.28;89.63
62632;BME280;48703;51.248;-0.546;2023-09-19T11:04:24;99990;;;17.27;89.91
62632;BME280;48703;51.248;-0.546;2023-09-19T11:07:25;99996;;;17.27;89.89
62632;BME280;48703;51.248;-0.546;2023-09-19T11:10:59;99997;;;17.27;90.07
62632;BME280;48703;51.248;-0.546;2023-09-19T11:13:29;99998;;;17.25;90.46
62632;BME280;48703;51.248;-0.546;2023-09-19T11:16:31;100000;;;17.25;90.65
62632;BME280;48703;51.248;-0.546;2023-09-19T11:20:22;99998;;;17.23;90.98
62632;BME280;48703;51.248;-0.546;2023-09-19T11:23:17;99999;;;17.22;91.35
62632;BME280;48703;51.248;-0.546;2023-09-19T11:25:42;99998;;;17.21;91.78
62632;BME280;48703;51.248;-0.546;2023-09-19T11:28:39;100001;;;17.21;92.26
62632;BME280;48703;51.248;-0.546;2023-09-19T11:31:43;99998;;;17.22;92.55
62632;BME280;48703;51.248;-0.546;2023-09-19T11:34:44;99992;;;17.24;92.53
62632;BME280;48703;51.248;-0.546;2023-09-19T11:38:03;99986;;;17.25;93.24
62632;BME280;48703;51.248;-0.546;2023-09-19T11:40:52;99994;;;17.25;92.79
62632;BME280;48703;51.248;-0.546;2023-09-19T11:43:50;99988;;;17.25;93.06
62632;BME280;48703;51.248;-0.546;2023-09-19T11:46:53;99994;;;17.25;92.99
62632;BME280;48703;51.248;-0.546;2023-09-19T11:49:54;99993;;;17.26;92.68
62632;BME280;48703;51.248;-0.546;2023-09-19T11:52:56;99989;;;17.24;92.72
62632;BME280;48703;51.248;-0.546;2023-09-19T11:55:58;99987;;;17.24;92.90
62632;BME280;48703;51.248;-0.546;2023-09-19T11:59:00;99984;;;17.23;93.41
62632;BME280;48703;51.248;-0.546;2023-09-19T12:02:03;99978;;;17.23;93.42
62632;BME280;48703;51.248;-0.546;2023-09-19T12:05:04;99974;;;17.23;93.91
62632;BME280;48703;51.248;-0.546;2023-09-19T12:08:07;99976;;;17.21;94.06
62632;BME280;48703;51.248;-0.546;2023-09-19T12:11:11;99978;;;17.21;94.12
62632;BME280;48703;51.248;-0.546;2023-09-19T12:14:10;99975;;;17.22;94.51
62632;BME280;48703;51.248;-0.546;2023-09-19T12:17:12;99967;;;17.24;94.70
62632;BME280;48703;51.248;-0.546;2023-09-19T12:20:14;99968;;;17.26;94.45
62632;BME280;48703;51.248;-0.546;2023-09-19T12:23:16;99966;;;17.26;94.76
62632;BME280;48703;51.248;-0.546;2023-09-19T12:26:19;99961;;;17.27;94.54
62632;BME280;48703;51.248;-0.546;2023-09-19T12:29:21;99970;;;17.28;94.79
62632;BME280;48703;51.248;-0.546;2023-09-19T12:32:34;99960;;;17.31;95.06
62632;BME280;48703;51.248;-0.546;2023-09-19T12:35:28;99957;;;17.33;94.74
62632;BME280;48703;51.248;-0.546;2023-09-19T12:38:27;99949;;;17.34;95.01
62632;BME280;48703;51.248;-0.546;2023-09-19T12:41:29;99945;;;17.37;95.09
62632;BME280;48703;51.248;-0.546;2023-09-19T12:44:31;99943;;;17.38;95.11
62632;BME280;48703;51.248;-0.546;2023-09-19T12:47:33;99940;;;17.39;95.49
62632;BME280;48703;51.248;-0.546;2023-09-19T12:50:35;99931;;;17.38;95.55
62632;BME280;48703;51.248;-0.546;2023-09-19T12:53:38;99937;;;17.38;96.03
62632;BME280;48703;51.248;-0.546;2023-09-19T12:56:39;99941;;;17.37;96.11
62632;BME280;48703;51.248;-0.546;2023-09-19T12:59:41;99936;;;17.36;95.87
62632;BME280;48703;51.248;-0.546;2023-09-19T13:03:08;99937;;;17.36;96.13
62632;BME280;48703;51.248;-0.546;2023-09-19T13:05:47;99941;;;17.36;96.22
62632;BME280;48703;51.248;-0.546;2023-09-19T13:08:47;99940;;;17.36;96.05
62632;BME280;48703;51.248;-0.546;2023-09-19T13:11:50;99935;;;17.38;95.97
62632;BME280;48703;51.248;-0.546;2023-09-19T13:15:06;99936;;;17.39;95.86
62632;BME280;48703;51.248;-0.546;2023-09-19T13:17:54;99939;;;17.39;95.82
62632;BME280;48703;51.248;-0.546;2023-09-19T13:21:12;99943;;;17.40;95.91
62632;BME280;48703;51.248;-0.546;2023-09-19T13:24:17;99942;;;17.41;96.11
62632;BME280;48703;51.248;-0.546;2023-09-19T13:27:00;99939;;;17.42;96.09
62632;BME280;48703;51.248;-0.546;2023-09-19T13:30:02;99941;;;17.43;96.21
62632;BME280;48703;51.248;-0.546;2023-09-19T13:33:04;99944;;;17.42;96.73
62632;BME280;48703;51.248;-0.546;2023-09-19T13:36:06;99947;;;17.41;97.17
62632;BME280;48703;51.248;-0.546;2023-09-19T13:39:08;99944;;;17.40;97.01
62632;BME280;48703;51.248;-0.546;2023-09-19T13:42:10;99946;;;17.41;97.44
62632;BME280;48703;51.248;-0.546;2023-09-19T13:45:12;99944;;;17.43;97.90
62632;BME280;48703;51.248;-0.546;2023-09-19T13:48:14;99943;;;17.44;98.04
62632;BME280;48703;51.248;-0.546;2023-09-19T13:51:16;99933;;;17.45;98.68
62632;BME280;48703;51.248;-0.546;2023-09-19T13:54:19;99938;;;17.46;99.36
62632;BME280;48703;51.248;-0.546;2023-09-19T13:57:21;99943;;;17.46;99.28
62632;BME280;48703;51.248;-0.546;2023-09-19T14:00:23;99945;;;17.46;99.52
62632;BME280;48703;51.248;-0.546;2023-09-19T14:03:25;99947;;;17.45;99.77
62632;BME280;48703;51.248;-0.546;2023-09-19T14:06:27;99955;;;17.43;99.94
62632;BME280;48703;51.248;-0.546;2023-09-19T14:09:29;99953;;;17.44;100.00
62632;BME280;48703;51.248;-0.546;2023-09-19T14:12:31;99951;;;17.43;100.00
62632;BME280;48703;51.248;-0.546;2023-09-19T14:15:36;99958;;;17.42;100.00
62632;BME280;48703;51.248;-0.546;2023-09-19T14:18:35;99960;;;17.40;100.00
62632;BME280;48703;51.248;-0.546;2023-09-19T14:21:37;99957;;;17.41;100.00
62632;BME280;48703;51.248;-0.546;2023-09-19T14:24:39;99958;;;17.43;100.00
62632;BME280;48703;51.248;-0.546;2023-09-19T14:27:41;99963;;;17.43;100.00
62632;BME280;48703;51.248;-0.546;2023-09-19T14:30:43;99964;;;17.45;100.00
62632;BME280;48703;51.248;-0.546;2023-09-19T14:33:45;99961;;;17.44;100.00
62632;BME280;48703;51.248;-0.546;2023-09-19T14:36:47;99963;;;17.45;100.00
62632;BME280;48703;51.248;-0.546;2023-09-19T14:39:50;99961;;;17.46;100.00
62632;BME280;48703;51.248;-0.546;2023-09-19T14:42:52;99963;;;17.47;100.00
62632;BME280;48703;51.248;-0.546;2023-09-19T14:45:54;99961;;;17.48;100.00
62632;BME280;48703;51.248;-0.546;2023-09-19T14:48:56;99962;;;17.48;100.00
62632;BME280;48703;51.248;-0.546;2023-09-19T14:51:58;99954;;;17.50;100.00
62632;BME280;48703;51.248;-0.546;2023-09-19T14:55:00;99949;;;17.51;100.00
62632;BME280;48703;51.248;-0.546;2023-09-19T14:58:02;99946;;;17.51;100.00
62632;BME280;48703;51.248;-0.546;2023-09-19T15:01:05;99949;;;17.52;100.00
62632;BME280;48703;51.248;-0.546;2023-09-19T15:04:06;99947;;;17.52;100.00
62632;BME280;48703;51.248;-0.546;2023-09-19T15:07:08;99943;;;17.54;100.00
62632;BME280;48703;51.248;-0.546;2023-09-19T15:10:10;99945;;;17.56;100.00
62632;BME280;48703;51.248;-0.546;2023-09-19T15:13:12;99946;;;17.59;100.00
62632;BME280;48703;51.248;-0.546;2023-09-19T15:16:14;99944;;;17.63;100.00
62632;BME280;48703;51.248;-0.546;2023-09-19T15:19:16;99944;;;17.64;100.00
62632;BME280;48703;51.248;-0.546;2023-09-19T15:22:18;99941;;;17.64;100.00
62632;BME280;48703;51.248;-0.546;2023-09-19T15:25:21;99942;;;17.68;100.00
62632;BME280;48703;51.248;-0.546;2023-09-19T15:28:23;99945;;;17.69;100.00
62632;BME280;48703;51.248;-0.546;2023-09-19T15:31:25;99948;;;17.69;100.00
62632;BME280;48703;51.248;-0.546;2023-09-19T15:34:27;99956;;;17.69;100.00
62632;BME280;48703;51.248;-0.546;2023-09-19T15:37:29;99949;;;17.67;100.00
62632;BME280;48703;51.248;-0.546;2023-09-19T15:40:31;99954;;;17.65;100.00
62632;BME280;48703;51.248;-0.546;2023-09-19T15:43:33;99958;;;17.63;100.00
62632;BME280;48703;51.248;-0.546;2023-09-19T15:46:35;99950;;;17.64;100.00
62632;BME280;48703;51.248;-0.546;2023-09-19T15:49:37;99945;;;17.67;100.00
62632;BME280;48703;51.248;-0.546;2023-09-19T15:52:39;99943;;;17.69;100.00
62632;BME280;48703;51.248;-0.546;2023-09-19T15:55:41;99940;;;17.71;99.61
62632;BME280;48703;51.248;-0.546;2023-09-19T15:58:44;99935;;;17.74;99.15
62632;BME280;48703;51.248;-0.546;2023-09-19T16:01:45;99934;;;17.76;99.29
62632;BME280;48703;51.248;-0.546;2023-09-19T16:04:48;99939;;;17.76;98.75
62632;BME280;48703;51.248;-0.546;2023-09-19T16:07:50;99934;;;17.77;98.43
62632;BME280;48703;51.248;-0.546;2023-09-19T16:10:52;99926;;;17.78;98.22
62632;BME280;48703;51.248;-0.546;2023-09-19T16:13:54;99925;;;17.78;98.29
62632;BME280;48703;51.248;-0.546;2023-09-19T16:16:56;99929;;;17.74;97.29
62632;BME280;48703;51.248;-0.546;2023-09-19T16:19:58;99939;;;17.72;96.67